sensor_id;sensor_type;location;lat;lon;timestamp;pressure;altitude;pressure_sealevel;temperature;humidity
64192;BME280;50497;50.720;-2.084;2023-08-12T00:00:05;102231.66;;;14.92;100.00
64192;BME280;50497;50.720;-2.084;2023-08-12T00:02:39;102254.09;;;14.92;100.00
64192;BME280;50497;50.720;-2.084;2023-08-12T00:05:06;102263.38;;;14.85;100.00
64192;BME280;50497;50.720;-2.084;2023-08-12T00:07:32;102286.75;;;14.85;100.00
64192;BME280;50497;50.720;-2.084;2023-08-12T00:09:58;102308.94;;;14.91;100.00
64192;BME280;50497;50.720;-2.084;2023-08-12T00:12:24;102330.75;;;14.85;100.00
64192;BME280;50497;50.720;-2.084;2023-08-12T00:14:49;102353.13;;;14.87;100.00
64192;BME280;50497;50.720;-2.084;2023-08-12T00:17:14;102359.81;;;14.77;100.00
64192;BME280;50497;50.720;-2.084;2023-08-12T00:19:40;102396.22;;;14.87;100.00
64192;BME280;50497;50.720;-2.084;2023-08-12T00:22:05;102423.13;;;14.89;100.00
64192;BME280;50497;50.720;-2.084;2023-08-12T00:24:30;102449.19;;;14.88;100.00
64192;BME280;50497;50.720;-2.084;2023-08-12T00:26:55;102477.97;;;14.88;100.00
64192;BME280;50497;50.720;-2.084;2023-08-12T00:29:21;102499.66;;;14.85;100.00
64192;BME280;50497;50.720;-2.084;2023-08-12T00:31:46;102509.41;;;14.87;100.00
64192;BME280;50497;50.720;-2.084;2023-08-12T00:34:12;102478.03;;;14.63;100.00
64192;BME280;50497;50.720;-2.084;2023-08-12T00:36:37;102551.34;;;14.96;100.00
64192;BME280;50497;50.720;-2.084;2023-08-12T00:39:03;102552.31;;;14.93;100.00
64192;BME280;50497;50.720;-2.084;2023-08-12T00:41:29;102587.50;;;15.14;100.00
64192;BME280;50497;50.720;-2.084;2023-08-12T00:43:54;102601.81;;;15.16;100.00
64192;BME280;50497;50.720;-2.084;2023-08-12T00:46:20;102606.25;;;15.17;100.00
64192;BME280;50497;50.720;-2.084;2023-08-12T00:48:45;102604.78;;;15.08;100.00
64192;BME280;50497;50.720;-2.084;2023-08-12T00:51:11;102606.88;;;15.00;100.00
64192;BME280;50497;50.720;-2.084;2023-08-12T00:53:37;102588.16;;;14.95;100.00
64192;BME280;50497;50.720;-2.084;2023-08-12T00:56:03;102574.88;;;14.91;100.00
64192;BME280;50497;50.720;-2.084;2023-08-12T00:58:28;102559.84;;;14.84;100.00
64192;BME280;50497;50.720;-2.084;2023-08-12T01:00:54;102557.91;;;14.87;100.00
64192;BME280;50497;50.720;-2.084;2023-08-12T01:03:20;102565.19;;;14.85;100.00
64192;BME280;50497;50.720;-2.084;2023-08-12T01:05:46;102563.66;;;14.78;100.00
64192;BME280;50497;50.720;-2.084;2023-08-12T01:08:12;102563.75;;;14.75;100.00
64192;BME280;50497;50.720;-2.084;2023-08-12T01:10:39;102560.41;;;14.68;100.00
64192;BME280;50497;50.720;-2.084;2023-08-12T01:13:31;102571.34;;;14.64;100.00
64192;BME280;50497;50.720;-2.084;2023-08-12T01:15:58;102582.13;;;14.64;100.00
64192;BME280;50497;50.720;-2.084;2023-08-12T01:18:26;102599.16;;;14.64;100.00
64192;BME280;50497;50.720;-2.084;2023-08-12T01:20:52;102621.59;;;14.65;100.00
64192;BME280;50497;50.720;-2.084;2023-08-12T01:23:18;102646.81;;;14.62;100.00
64192;BME280;50497;50.720;-2.084;2023-08-12T01:25:45;102654.09;;;14.60;100.00
64192;BME280;50497;50.720;-2.084;2023-08-12T01:28:10;102667.63;;;14.57;100.00
64192;BME280;50497;50.720;-2.084;2023-08-12T01:30:49;102678.50;;;14.54;100.00
64192;BME280;50497;50.720;-2.084;2023-08-12T01:33:44;102681.41;;;14.48;100.00
64192;BME280;50497;50.720;-2.084;2023-08-12T01:36:19;102688.59;;;14.47;100.00
64192;BME280;50497;50.720;-2.084;2023-08-12T01:38:45;102706.72;;;14.42;100.00
64192;BME280;50497;50.720;-2.084;2023-08-12T01:41:13;102721.94;;;14.43;100.00
64192;BME280;50497;50.720;-2.084;2023-08-12T01:43:40;102730.06;;;14.41;100.00
64192;BME280;50497;50.720;-2.084;2023-08-12T01:46:06;102746.06;;;14.48;100.00
64192;BME280;50497;50.720;-2.084;2023-08-12T01:48:31;102763.81;;;14.53;100.00
64192;BME280;50497;50.720;-2.084;2023-08-12T01:50:57;102776.88;;;14.67;100.00
64192;BME280;50497;50.720;-2.084;2023-08-12T01:53:22;102817.03;;;14.75;100.00
64192;BME280;50497;50.720;-2.084;2023-08-12T01:55:49;102833.06;;;14.80;100.00
64192;BME280;50497;50.720;-2.084;2023-08-12T01:58:14;102839.38;;;14.78;100.00
64192;BME280;50497;50.720;-2.084;2023-08-12T02:00:40;102866.00;;;14.89;100.00
64192;BME280;50497;50.720;-2.084;2023-08-12T02:03:05;102891.81;;;14.96;100.00
64192;BME280;50497;50.720;-2.084;2023-08-12T02:05:32;102899.56;;;15.07;100.00
64192;BME280;50497;50.720;-2.084;2023-08-12T02:07:57;102911.75;;;15.21;100.00
64192;BME280;50497;50.720;-2.084;2023-08-12T02:10:23;102930.31;;;15.30;100.00
64192;BME280;50497;50.720;-2.084;2023-08-12T02:12:48;102944.28;;;15.43;100.00
64192;BME280;50497;50.720;-2.084;2023-08-12T02:15:13;102948.59;;;15.48;100.00
64192;BME280;50497;50.720;-2.084;2023-08-12T02:17:39;102968.28;;;15.50;100.00
64192;BME280;50497;50.720;-2.084;2023-08-12T02:20:05;102984.19;;;15.60;100.00
64192;BME280;50497;50.720;-2.084;2023-08-12T02:22:30;102988.31;;;15.71;100.00
64192;BME280;50497;50.720;-2.084;2023-08-12T02:24:56;103006.13;;;15.79;100.00
64192;BME280;50497;50.720;-2.084;2023-08-12T02:27:21;103007.66;;;15.86;100.00
64192;BME280;50497;50.720;-2.084;2023-08-12T02:29:47;103011.22;;;15.86;100.00
64192;BME280;50497;50.720;-2.084;2023-08-12T02:32:12;103019.34;;;15.86;100.00
64192;BME280;50497;50.720;-2.084;2023-08-12T02:34:37;103004.69;;;15.94;100.00
64192;BME280;50497;50.720;-2.084;2023-08-12T02:37:03;102991.41;;;15.87;100.00
64192;BME280;50497;50.720;-2.084;2023-08-12T02:39:28;102965.69;;;15.77;100.00
64192;BME280;50497;50.720;-2.084;2023-08-12T02:41:53;102952.25;;;15.74;100.00
64192;BME280;50497;50.720;-2.084;2023-08-12T02:44:19;102947.78;;;15.73;100.00
64192;BME280;50497;50.720;-2.084;2023-08-12T02:46:44;102950.53;;;15.71;100.00
64192;BME280;50497;50.720;-2.084;2023-08-12T02:49:10;102952.38;;;15.69;100.00
64192;BME280;50497;50.720;-2.084;2023-08-12T02:51:35;102960.69;;;15.63;100.00
64192;BME280;50497;50.720;-2.084;2023-08-12T02:54:00;102970.66;;;15.61;100.00
64192;BME280;50497;50.720;-2.084;2023-08-12T02:56:26;102976.91;;;15.62;100.00
64192;BME280;50497;50.720;-2.084;2023-08-12T02:58:51;102961.00;;;15.54;100.00
64192;BME280;50497;50.720;-2.084;2023-08-12T03:01:17;102956.44;;;15.56;100.00
64192;BME280;50497;50.720;-2.084;2023-08-12T03:03:43;102952.91;;;15.54;100.00
64192;BME280;50497;50.720;-2.084;2023-08-12T03:06:08;102943.78;;;15.58;100.00
64192;BME280;50497;50.720;-2.084;2023-08-12T03:08:34;102943.47;;;15.67;100.00
64192;BME280;50497;50.720;-2.084;2023-08-12T03:11:00;102939.59;;;15.76;100.00
64192;BME280;50497;50.720;-2.084;2023-08-12T03:13:26;102919.75;;;15.79;100.00
64192;BME280;50497;50.720;-2.084;2023-08-12T03:15:52;102910.78;;;15.77;100.00
64192;BME280;50497;50.720;-2.084;2023-08-12T03:18:17;102899.03;;;15.79;100.00
64192;BME280;50497;50.720;-2.084;2023-08-12T03:20:42;102892.91;;;15.73;100.00
64192;BME280;50497;50.720;-2.084;2023-08-12T03:23:08;102897.25;;;15.78;100.00
64192;BME280;50497;50.720;-2.084;2023-08-12T03:25:33;102879.47;;;15.71;100.00
64192;BME280;50497;50.720;-2.084;2023-08-12T03:27:58;102894.06;;;15.92;100.00
64192;BME280;50497;50.720;-2.084;2023-08-12T03:30:24;102892.19;;;15.94;100.00
64192;BME280;50497;50.720;-2.084;2023-08-12T03:32:51;102874.13;;;15.96;100.00
64192;BME280;50497;50.720;-2.084;2023-08-12T03:35:17;102846.41;;;15.91;100.00
64192;BME280;50497;50.720;-2.084;2023-08-12T03:37:42;102831.69;;;16.00;100.00
64192;BME280;50497;50.720;-2.084;2023-08-12T03:40:08;102801.16;;;15.98;100.00
64192;BME280;50497;50.720;-2.084;2023-08-12T03:42:34;102774.13;;;15.99;100.00
64192;BME280;50497;50.720;-2.084;2023-08-12T03:44:59;102748.81;;;16.02;100.00
64192;BME280;50497;50.720;-2.084;2023-08-12T03:47:24;102719.03;;;16.03;100.00
64192;BME280;50497;50.720;-2.084;2023-08-12T03:49:50;102695.75;;;16.01;100.00
64192;BME280;50497;50.720;-2.084;2023-08-12T03:52:15;102677.44;;;16.09;100.00
64192;BME280;50497;50.720;-2.084;2023-08-12T03:54:41;102644.97;;;16.11;100.00
64192;BME280;50497;50.720;-2.084;2023-08-12T03:57:06;102614.19;;;16.15;100.00
64192;BME280;50497;50.720;-2.084;2023-08-12T03:59:31;102586.44;;;16.11;100.00
64192;BME280;50497;50.720;-2.084;2023-08-12T04:01:57;102556.81;;;16.10;100.00
64192;BME280;50497;50.720;-2.084;2023-08-12T04:04:23;102526.16;;;16.11;100.00
64192;BME280;50497;50.720;-2.084;2023-08-12T04:06:48;102508.25;;;16.08;100.00
64192;BME280;50497;50.720;-2.084;2023-08-12T04:09:19;102490.38;;;16.05;100.00
64192;BME280;50497;50.720;-2.084;2023-08-12T04:11:45;102473.41;;;16.02;100.00
64192;BME280;50497;50.720;-2.084;2023-08-12T04:14:11;102465.00;;;16.10;100.00
64192;BME280;50497;50.720;-2.084;2023-08-12T04:16:37;102450.69;;;16.07;100.00
64192;BME280;50497;50.720;-2.084;2023-08-12T04:19:02;102413.91;;;16.05;100.00
64192;BME280;50497;50.720;-2.084;2023-08-12T04:21:28;102397.81;;;16.02;100.00
64192;BME280;50497;50.720;-2.084;2023-08-12T04:23:53;102378.88;;;16.03;100.00
64192;BME280;50497;50.720;-2.084;2023-08-12T04:26:19;102364.56;;;16.01;100.00
64192;BME280;50497;50.720;-2.084;2023-08-12T04:28:44;102341.50;;;15.94;100.00
64192;BME280;50497;50.720;-2.084;2023-08-12T04:31:09;102345.06;;;15.95;100.00
64192;BME280;50497;50.720;-2.084;2023-08-12T04:33:35;102325.56;;;15.88;100.00
64192;BME280;50497;50.720;-2.084;2023-08-12T04:36:00;102327.25;;;15.91;100.00
64192;BME280;50497;50.720;-2.084;2023-08-12T04:38:25;102324.50;;;15.92;100.00
64192;BME280;50497;50.720;-2.084;2023-08-12T04:40:52;102310.31;;;15.87;100.00
64192;BME280;50497;50.720;-2.084;2023-08-12T04:43:18;102321.94;;;15.89;100.00
64192;BME280;50497;50.720;-2.084;2023-08-12T04:45:46;102323.47;;;15.95;100.00
64192;BME280;50497;50.720;-2.084;2023-08-12T04:48:12;102325.22;;;15.96;100.00
64192;BME280;50497;50.720;-2.084;2023-08-12T04:50:38;102328.66;;;15.99;100.00
64192;BME280;50497;50.720;-2.084;2023-08-12T04:53:04;102324.88;;;16.03;100.00
64192;BME280;50497;50.720;-2.084;2023-08-12T04:55:29;102337.44;;;16.04;100.00
64192;BME280;50497;50.720;-2.084;2023-08-12T04:57:55;102347.38;;;16.04;100.00
64192;BME280;50497;50.720;-2.084;2023-08-12T05:00:21;102344.72;;;16.02;100.00
64192;BME280;50497;50.720;-2.084;2023-08-12T05:02:47;102332.31;;;15.98;100.00
64192;BME280;50497;50.720;-2.084;2023-08-12T05:05:13;102327.50;;;16.05;100.00
64192;BME280;50497;50.720;-2.084;2023-08-12T05:07:39;102329.88;;;16.13;100.00
64192;BME280;50497;50.720;-2.084;2023-08-12T05:10:04;102304.03;;;16.07;100.00
64192;BME280;50497;50.720;-2.084;2023-08-12T05:12:30;102297.66;;;16.08;100.00
64192;BME280;50497;50.720;-2.084;2023-08-12T05:14:55;102293.66;;;16.17;100.00
64192;BME280;50497;50.720;-2.084;2023-08-12T05:17:21;102289.75;;;16.24;100.00
64192;BME280;50497;50.720;-2.084;2023-08-12T05:19:46;102277.13;;;16.24;100.00
64192;BME280;50497;50.720;-2.084;2023-08-12T05:22:12;102250.84;;;16.28;100.00
64192;BME280;50497;50.720;-2.084;2023-08-12T05:24:37;102251.47;;;16.33;100.00
64192;BME280;50497;50.720;-2.084;2023-08-12T05:27:03;102220.97;;;16.31;100.00
64192;BME280;50497;50.720;-2.084;2023-08-12T05:29:29;102205.00;;;16.26;100.00
64192;BME280;50497;50.720;-2.084;2023-08-12T05:31:55;102191.78;;;16.39;100.00
64192;BME280;50497;50.720;-2.084;2023-08-12T05:34:20;102173.59;;;16.43;100.00
64192;BME280;50497;50.720;-2.084;2023-08-12T05:36:45;102146.50;;;16.44;100.00
64192;BME280;50497;50.720;-2.084;2023-08-12T05:39:11;102123.94;;;16.46;100.00
64192;BME280;50497;50.720;-2.084;2023-08-12T05:41:36;102104.56;;;16.55;100.00
64192;BME280;50497;50.720;-2.084;2023-08-12T05:44:01;102098.28;;;16.54;100.00
64192;BME280;50497;50.720;-2.084;2023-08-12T05:46:27;102073.91;;;16.56;100.00
64192;BME280;50497;50.720;-2.084;2023-08-12T05:48:52;102059.19;;;16.61;100.00
64192;BME280;50497;50.720;-2.084;2023-08-12T05:51:18;102056.91;;;16.54;100.00
64192;BME280;50497;50.720;-2.084;2023-08-12T05:53:43;102062.94;;;16.59;100.00
64192;BME280;50497;50.720;-2.084;2023-08-12T05:56:08;102045.94;;;16.57;100.00
64192;BME280;50497;50.720;-2.084;2023-08-12T05:58:34;102027.66;;;16.62;100.00
64192;BME280;50497;50.720;-2.084;2023-08-12T06:00:59;102022.63;;;16.72;100.00
64192;BME280;50497;50.720;-2.084;2023-08-12T06:03:24;101990.28;;;16.70;100.00
64192;BME280;50497;50.720;-2.084;2023-08-12T06:05:50;101994.25;;;16.80;100.00
64192;BME280;50497;50.720;-2.084;2023-08-12T06:08:15;101974.91;;;16.88;100.00
64192;BME280;50497;50.720;-2.084;2023-08-12T06:10:40;101964.09;;;16.88;100.00
64192;BME280;50497;50.720;-2.084;2023-08-12T06:13:06;101955.34;;;17.01;100.00
64192;BME280;50497;50.720;-2.084;2023-08-12T06:15:32;101943.31;;;17.06;100.00
64192;BME280;50497;50.720;-2.084;2023-08-12T06:17:59;101923.25;;;17.10;100.00
64192;BME280;50497;50.720;-2.084;2023-08-12T06:20:24;101912.78;;;17.04;100.00
64192;BME280;50497;50.720;-2.084;2023-08-12T06:22:50;101892.56;;;16.95;100.00
64192;BME280;50497;50.720;-2.084;2023-08-12T06:25:16;101870.22;;;16.92;100.00
64192;BME280;50497;50.720;-2.084;2023-08-12T06:27:42;101886.69;;;17.03;100.00
64192;BME280;50497;50.720;-2.084;2023-08-12T06:30:08;101883.72;;;17.08;100.00
64192;BME280;50497;50.720;-2.084;2023-08-12T06:32:35;101879.31;;;17.07;100.00
64192;BME280;50497;50.720;-2.084;2023-08-12T06:35:00;101867.78;;;17.19;100.00
64192;BME280;50497;50.720;-2.084;2023-08-12T06:37:26;101874.06;;;17.35;100.00
64192;BME280;50497;50.720;-2.084;2023-08-12T06:39:51;101861.28;;;17.53;100.00
64192;BME280;50497;50.720;-2.084;2023-08-12T06:42:16;101852.50;;;17.64;100.00
64192;BME280;50497;50.720;-2.084;2023-08-12T06:44:42;101866.13;;;17.63;100.00
64192;BME280;50497;50.720;-2.084;2023-08-12T06:47:07;101859.94;;;17.61;100.00
64192;BME280;50497;50.720;-2.084;2023-08-12T06:49:33;101867.66;;;17.83;100.00
64192;BME280;50497;50.720;-2.084;2023-08-12T06:51:58;101848.69;;;17.83;100.00
64192;BME280;50497;50.720;-2.084;2023-08-12T06:54:23;101853.00;;;17.87;100.00
64192;BME280;50497;50.720;-2.084;2023-08-12T06:56:49;101839.19;;;17.91;100.00
64192;BME280;50497;50.720;-2.084;2023-08-12T06:59:15;101828.06;;;17.66;100.00
64192;BME280;50497;50.720;-2.084;2023-08-12T07:01:40;101836.16;;;17.82;100.00
64192;BME280;50497;50.720;-2.084;2023-08-12T07:04:06;101829.25;;;17.76;100.00
64192;BME280;50497;50.720;-2.084;2023-08-12T07:06:31;101829.81;;;17.67;100.00
64192;BME280;50497;50.720;-2.084;2023-08-12T07:08:56;101822.56;;;17.67;100.00
64192;BME280;50497;50.720;-2.084;2023-08-12T07:11:22;101827.56;;;17.59;100.00
64192;BME280;50497;50.720;-2.084;2023-08-12T07:13:47;101826.03;;;17.69;100.00
64192;BME280;50497;50.720;-2.084;2023-08-12T07:16:13;101814.59;;;17.80;100.00
64192;BME280;50497;50.720;-2.084;2023-08-12T07:18:38;101823.16;;;18.03;100.00
64192;BME280;50497;50.720;-2.084;2023-08-12T07:21:05;101819.59;;;18.45;100.00
64192;BME280;50497;50.720;-2.084;2023-08-12T07:23:30;101811.56;;;18.44;100.00
64192;BME280;50497;50.720;-2.084;2023-08-12T07:25:56;101830.47;;;19.16;100.00
64192;BME280;50497;50.720;-2.084;2023-08-12T07:28:21;101806.16;;;19.54;100.00
64192;BME280;50497;50.720;-2.084;2023-08-12T07:30:48;101818.72;;;19.55;100.00
64192;BME280;50497;50.720;-2.084;2023-08-12T07:33:14;101820.72;;;19.66;100.00
64192;BME280;50497;50.720;-2.084;2023-08-12T07:35:39;101827.63;;;19.85;100.00
64192;BME280;50497;50.720;-2.084;2023-08-12T07:38:04;101829.13;;;19.49;100.00
64192;BME280;50497;50.720;-2.084;2023-08-12T07:40:30;101821.88;;;19.22;100.00
64192;BME280;50497;50.720;-2.084;2023-08-12T07:42:55;101815.59;;;18.94;100.00
64192;BME280;50497;50.720;-2.084;2023-08-12T07:45:21;101810.16;;;18.80;100.00
64192;BME280;50497;50.720;-2.084;2023-08-12T07:47:47;101805.84;;;18.49;100.00
64192;BME280;50497;50.720;-2.084;2023-08-12T07:50:12;101810.69;;;18.29;100.00
64192;BME280;50497;50.720;-2.084;2023-08-12T07:52:37;101799.88;;;18.43;100.00
64192;BME280;50497;50.720;-2.084;2023-08-12T07:55:03;101789.13;;;18.42;100.00
64192;BME280;50497;50.720;-2.084;2023-08-12T07:57:28;101795.97;;;18.47;100.00
64192;BME280;50497;50.720;-2.084;2023-08-12T07:59:54;101790.88;;;18.43;100.00
64192;BME280;50497;50.720;-2.084;2023-08-12T08:02:19;101800.44;;;18.49;100.00
64192;BME280;50497;50.720;-2.084;2023-08-12T08:04:44;101797.53;;;18.37;100.00
64192;BME280;50497;50.720;-2.084;2023-08-12T08:07:13;101798.09;;;18.57;100.00
64192;BME280;50497;50.720;-2.084;2023-08-12T08:09:41;101799.22;;;18.96;100.00
64192;BME280;50497;50.720;-2.084;2023-08-12T08:12:07;101813.75;;;18.80;100.00
64192;BME280;50497;50.720;-2.084;2023-08-12T08:14:33;101815.38;;;18.97;100.00
64192;BME280;50497;50.720;-2.084;2023-08-12T08:16:58;101823.53;;;18.69;100.00
64192;BME280;50497;50.720;-2.084;2023-08-12T08:19:24;101809.25;;;18.38;100.00
64192;BME280;50497;50.720;-2.084;2023-08-12T08:21:49;101811.56;;;18.58;100.00
64192;BME280;50497;50.720;-2.084;2023-08-12T08:24:14;101822.78;;;18.81;100.00
64192;BME280;50497;50.720;-2.084;2023-08-12T08:26:40;101820.53;;;19.69;100.00
64192;BME280;50497;50.720;-2.084;2023-08-12T08:29:10;101809.94;;;19.39;100.00
64192;BME280;50497;50.720;-2.084;2023-08-12T08:31:36;101800.03;;;19.11;100.00
64192;BME280;50497;50.720;-2.084;2023-08-12T08:34:01;101805.78;;;19.06;100.00
64192;BME280;50497;50.720;-2.084;2023-08-12T08:36:26;101815.59;;;18.80;100.00
64192;BME280;50497;50.720;-2.084;2023-08-12T08:38:52;101812.28;;;18.89;100.00
64192;BME280;50497;50.720;-2.084;2023-08-12T08:41:17;101819.59;;;19.16;100.00
64192;BME280;50497;50.720;-2.084;2023-08-12T08:43:43;101815.91;;;19.84;100.00
64192;BME280;50497;50.720;-2.084;2023-08-12T08:46:14;101819.97;;;20.80;100.00
64192;BME280;50497;50.720;-2.084;2023-08-12T08:48:44;101830.56;;;20.72;100.00
64192;BME280;50497;50.720;-2.084;2023-08-12T08:51:10;101830.91;;;20.28;100.00
64192;BME280;50497;50.720;-2.084;2023-08-12T08:53:40;101832.13;;;20.37;100.00
64192;BME280;50497;50.720;-2.084;2023-08-12T08:56:07;101843.91;;;20.62;100.00
64192;BME280;50497;50.720;-2.084;2023-08-12T08:58:33;101842.31;;;20.08;100.00
64192;BME280;50497;50.720;-2.084;2023-08-12T09:00:58;101844.72;;;20.64;100.00
64192;BME280;50497;50.720;-2.084;2023-08-12T09:03:25;101847.09;;;20.43;100.00
64192;BME280;50497;50.720;-2.084;2023-08-12T09:05:51;101835.22;;;20.57;100.00
64192;BME280;50497;50.720;-2.084;2023-08-12T09:08:18;101854.72;;;20.51;100.00
64192;BME280;50497;50.720;-2.084;2023-08-12T09:10:43;101853.81;;;19.99;100.00
64192;BME280;50497;50.720;-2.084;2023-08-12T09:13:10;101840.34;;;19.97;100.00
64192;BME280;50497;50.720;-2.084;2023-08-12T09:15:35;101846.13;;;20.18;100.00
64192;BME280;50497;50.720;-2.084;2023-08-12T09:18:01;101845.47;;;20.15;100.00
64192;BME280;50497;50.720;-2.084;2023-08-12T09:20:26;101831.97;;;19.47;100.00
64192;BME280;50497;50.720;-2.084;2023-08-12T09:22:56;101857.19;;;19.62;100.00
64192;BME280;50497;50.720;-2.084;2023-08-12T09:25:22;101839.78;;;19.92;100.00
64192;BME280;50497;50.720;-2.084;2023-08-12T09:27:48;101847.03;;;19.66;100.00
64192;BME280;50497;50.720;-2.084;2023-08-12T09:30:14;101847.22;;;19.63;100.00
64192;BME280;50497;50.720;-2.084;2023-08-12T09:32:39;101838.28;;;19.48;100.00
64192;BME280;50497;50.720;-2.084;2023-08-12T09:35:05;101839.78;;;19.52;100.00
64192;BME280;50497;50.720;-2.084;2023-08-12T09:37:31;101835.41;;;19.36;100.00
64192;BME280;50497;50.720;-2.084;2023-08-12T09:39:57;101841.22;;;19.85;100.00
64192;BME280;50497;50.720;-2.084;2023-08-12T09:42:23;101839.47;;;19.97;100.00
64192;BME280;50497;50.720;-2.084;2023-08-12T09:44:49;101856.38;;;19.74;100.00
64192;BME280;50497;50.720;-2.084;2023-08-12T09:47:14;101849.84;;;19.64;100.00
64192;BME280;50497;50.720;-2.084;2023-08-12T09:49:40;101844.81;;;19.58;100.00
64192;BME280;50497;50.720;-2.084;2023-08-12T09:52:06;101851.09;;;19.46;100.00
64192;BME280;50497;50.720;-2.084;2023-08-12T09:54:32;101852.00;;;19.72;100.00
64192;BME280;50497;50.720;-2.084;2023-08-12T09:56:58;101862.25;;;19.41;100.00
64192;BME280;50497;50.720;-2.084;2023-08-12T09:59:25;101846.66;;;19.30;100.00
64192;BME280;50497;50.720;-2.084;2023-08-12T10:01:52;101846.13;;;19.11;100.00
64192;BME280;50497;50.720;-2.084;2023-08-12T10:04:22;101846.78;;;19.56;100.00
64192;BME280;50497;50.720;-2.084;2023-08-12T10:06:48;101863.47;;;19.50;100.00
64192;BME280;50497;50.720;-2.084;2023-08-12T10:09:15;101862.97;;;19.70;100.00
64192;BME280;50497;50.720;-2.084;2023-08-12T10:11:45;101858.06;;;19.90;100.00
64192;BME280;50497;50.720;-2.084;2023-08-12T10:14:12;101856.22;;;20.03;100.00
64192;BME280;50497;50.720;-2.084;2023-08-12T10:16:38;101864.06;;;20.34;100.00
64192;BME280;50497;50.720;-2.084;2023-08-12T10:19:06;101858.59;;;19.95;100.00
64192;BME280;50497;50.720;-2.084;2023-08-12T10:21:36;101858.44;;;19.71;100.00
64192;BME280;50497;50.720;-2.084;2023-08-12T10:24:02;101882.94;;;19.97;100.00
64192;BME280;50497;50.720;-2.084;2023-08-12T10:26:29;101853.63;;;19.89;100.00
64192;BME280;50497;50.720;-2.084;2023-08-12T10:28:56;101864.28;;;20.05;100.00
64192;BME280;50497;50.720;-2.084;2023-08-12T10:31:21;101868.50;;;20.22;100.00
64192;BME280;50497;50.720;-2.084;2023-08-12T10:33:47;101863.84;;;20.37;100.00
64192;BME280;50497;50.720;-2.084;2023-08-12T10:36:15;101857.31;;;20.13;100.00
64192;BME280;50497;50.720;-2.084;2023-08-12T10:38:43;101858.34;;;19.72;100.00
64192;BME280;50497;50.720;-2.084;2023-08-12T10:44:00;101851.75;;;19.89;100.00
64192;BME280;50497;50.720;-2.084;2023-08-12T10:46:36;101851.75;;;19.62;100.00
64192;BME280;50497;50.720;-2.084;2023-08-12T10:49:10;101847.50;;;19.85;100.00
64192;BME280;50497;50.720;-2.084;2023-08-12T10:51:52;101854.47;;;19.89;100.00
64192;BME280;50497;50.720;-2.084;2023-08-12T10:54:20;101848.63;;;20.21;100.00
64192;BME280;50497;50.720;-2.084;2023-08-12T11:02:26;101866.13;;;21.18;100.00
64192;BME280;50497;50.720;-2.084;2023-08-12T11:05:02;101841.66;;;21.18;100.00
64192;BME280;50497;50.720;-2.084;2023-08-12T11:07:41;101866.00;;;21.92;100.00
64192;BME280;50497;50.720;-2.084;2023-08-12T11:15:30;101870.06;;;20.39;100.00
64192;BME280;50497;50.720;-2.084;2023-08-12T11:17:57;101857.63;;;20.73;100.00
64192;BME280;50497;50.720;-2.084;2023-08-12T11:20:23;101863.97;;;21.35;100.00
64192;BME280;50497;50.720;-2.084;2023-08-12T11:22:50;101859.78;;;21.90;100.00
64192;BME280;50497;50.720;-2.084;2023-08-12T11:25:16;101890.78;;;21.65;100.00
64192;BME280;50497;50.720;-2.084;2023-08-12T11:27:42;101875.56;;;21.98;100.00
64192;BME280;50497;50.720;-2.084;2023-08-12T11:30:12;101886.25;;;21.53;100.00
64192;BME280;50497;50.720;-2.084;2023-08-12T11:32:40;101883.06;;;21.94;100.00
64192;BME280;50497;50.720;-2.084;2023-08-12T11:35:06;101886.03;;;21.56;100.00
64192;BME280;50497;50.720;-2.084;2023-08-12T11:37:32;101880.19;;;21.49;100.00
64192;BME280;50497;50.720;-2.084;2023-08-12T11:39:58;101878.94;;;21.29;100.00
64192;BME280;50497;50.720;-2.084;2023-08-12T11:42:23;101877.91;;;22.03;100.00
64192;BME280;50497;50.720;-2.084;2023-08-12T11:44:49;101879.50;;;22.41;100.00
64192;BME280;50497;50.720;-2.084;2023-08-12T11:47:14;101882.59;;;22.47;100.00
64192;BME280;50497;50.720;-2.084;2023-08-12T11:49:39;101888.97;;;21.77;100.00
64192;BME280;50497;50.720;-2.084;2023-08-12T11:52:05;101890.56;;;21.31;100.00
64192;BME280;50497;50.720;-2.084;2023-08-12T11:54:30;101883.06;;;21.94;100.00
64192;BME280;50497;50.720;-2.084;2023-08-12T11:56:56;101861.91;;;21.63;100.00
64192;BME280;50497;50.720;-2.084;2023-08-12T11:59:22;101871.00;;;22.21;100.00
64192;BME280;50497;50.720;-2.084;2023-08-12T12:01:51;101863.00;;;23.54;100.00
64192;BME280;50497;50.720;-2.084;2023-08-12T12:04:16;101893.97;;;23.43;100.00
64192;BME280;50497;50.720;-2.084;2023-08-12T12:06:45;101888.31;;;23.12;100.00
64192;BME280;50497;50.720;-2.084;2023-08-12T12:09:10;101876.09;;;23.39;100.00
64192;BME280;50497;50.720;-2.084;2023-08-12T12:11:40;101911.34;;;23.31;100.00
64192;BME280;50497;50.720;-2.084;2023-08-12T12:14:08;101906.59;;;24.09;100.00
64192;BME280;50497;50.720;-2.084;2023-08-12T12:16:41;101913.91;;;23.55;100.00
64192;BME280;50497;50.720;-2.084;2023-08-12T12:19:23;101917.03;;;23.50;100.00
64192;BME280;50497;50.720;-2.084;2023-08-12T12:21:50;101902.41;;;23.72;100.00
64192;BME280;50497;50.720;-2.084;2023-08-12T12:24:17;101904.31;;;22.83;100.00
64192;BME280;50497;50.720;-2.084;2023-08-12T12:26:43;101903.34;;;23.06;100.00
64192;BME280;50497;50.720;-2.084;2023-08-12T12:29:09;101927.16;;;22.93;100.00
64192;BME280;50497;50.720;-2.084;2023-08-12T12:31:37;101913.47;;;22.37;100.00
64192;BME280;50497;50.720;-2.084;2023-08-12T12:34:04;101906.41;;;22.91;100.00
64192;BME280;50497;50.720;-2.084;2023-08-12T12:36:30;101911.38;;;22.05;100.00
64192;BME280;50497;50.720;-2.084;2023-08-12T12:38:56;101892.28;;;22.40;100.00